Terminal Aerodrome Forecast
Issued by NWS

Home | Current Version | Previous Version | Graphics & Text | Print | Product List | Glossary On
Versions: 1 2 3 4 5 6 7 8 9 10 11 12 13 14 15 16 17 18 19 20 21 22
000
FTUS43 KTOP 201100
TAFMHK
TAF
KMHK 201120Z 2012/2112 21008KT P6SM SCT200
      TEMPO 2012/2014 3SM BR
     FM210300 20005KT 6SM BR OVC014=

USA.gov is the U.S. government's official web portal to all federal, state and local government web resources and services.